sensor_id;sensor_type;location;lat;lon;timestamp;pressure;altitude;pressure_sealevel;temperature;humidity
77153;BME280;66124;51.146;17.072;2023-03-02T00:02:16;101145.48;;;-2.02;68.90
77153;BME280;66124;51.146;17.072;2023-03-02T00:04:46;101144.95;;;-2.02;68.69
77153;BME280;66124;51.146;17.072;2023-03-02T00:07:19;101142.30;;;-2.04;68.91
77153;BME280;66124;51.146;17.072;2023-03-02T00:09:50;101141.94;;;-2.04;69.13
77153;BME280;66124;51.146;17.072;2023-03-02T00:12:21;101141.21;;;-2.03;69.24
77153;BME280;66124;51.146;17.072;2023-03-02T00:14:50;101137.38;;;-2.02;69.37
77153;BME280;66124;51.146;17.072;2023-03-02T00:17:19;101139.02;;;-2.01;69.25
77153;BME280;66124;51.146;17.072;2023-03-02T00:19:49;101140.84;;;-1.99;69.25
77153;BME280;66124;51.146;17.072;2023-03-02T00:22:18;101139.55;;;-2.01;69.14
77153;BME280;66124;51.146;17.072;2023-03-02T00:24:47;101136.98;;;-2.05;68.96
77153;BME280;66124;51.146;17.072;2023-03-02T00:27:15;101139.55;;;-2.04;69.27
77153;BME280;66124;51.146;17.072;2023-03-02T00:29:43;101137.55;;;-2.06;69.33
77153;BME280;66124;51.146;17.072;2023-03-02T00:39:45;101129.23;;;-2.05;69.70
77153;BME280;66124;51.146;17.072;2023-03-02T00:42:14;101129.95;;;-2.05;69.84
77153;BME280;66124;51.146;17.072;2023-03-02T00:44:44;101132.88;;;-2.05;69.94
77153;BME280;66124;51.146;17.072;2023-03-02T00:47:13;101131.17;;;-2.05;69.66
77153;BME280;66124;51.146;17.072;2023-03-02T00:49:43;101126.67;;;-2.05;69.56
77153;BME280;66124;51.146;17.072;2023-03-02T00:52:13;101126.63;;;-2.04;69.63
77153;BME280;66124;51.146;17.072;2023-03-02T00:54:42;101124.12;;;-2.02;69.74
77153;BME280;66124;51.146;17.072;2023-03-02T00:57:11;101125.89;;;-2.00;69.87
77153;BME280;66124;51.146;17.072;2023-03-02T00:59:41;101125.61;;;-1.98;69.89
77153;BME280;66124;51.146;17.072;2023-03-02T01:02:10;101124.94;;;-1.98;70.01
77153;BME280;66124;51.146;17.072;2023-03-02T01:04:42;101118.51;;;-2.01;69.85
77153;BME280;66124;51.146;17.072;2023-03-02T01:07:13;101113.36;;;-2.04;69.83
77153;BME280;66124;51.146;17.072;2023-03-02T01:09:44;101109.62;;;-2.08;69.78
77153;BME280;66124;51.146;17.072;2023-03-02T01:12:14;101107.73;;;-2.12;69.78
77153;BME280;66124;51.146;17.072;2023-03-02T01:14:46;101108.92;;;-2.16;69.64
77153;BME280;66124;51.146;17.072;2023-03-02T01:17:16;101104.95;;;-2.19;69.65
77153;BME280;66124;51.146;17.072;2023-03-02T01:19:45;101089.16;;;-2.26;69.83
77153;BME280;66124;51.146;17.072;2023-03-02T01:22:15;101089.73;;;-2.24;69.82
77153;BME280;66124;51.146;17.072;2023-03-02T01:24:44;101085.88;;;-2.26;69.73
77153;BME280;66124;51.146;17.072;2023-03-02T01:27:13;101082.68;;;-2.28;69.73
77153;BME280;66124;51.146;17.072;2023-03-02T01:29:43;101081.42;;;-2.30;69.72
77153;BME280;66124;51.146;17.072;2023-03-02T01:32:13;101081.02;;;-2.32;69.76
77153;BME280;66124;51.146;17.072;2023-03-02T01:34:43;101080.40;;;-2.34;69.82
77153;BME280;66124;51.146;17.072;2023-03-02T01:37:12;101079.21;;;-2.34;70.04
77153;BME280;66124;51.146;17.072;2023-03-02T01:39:41;101073.48;;;-2.36;70.02
77153;BME280;66124;51.146;17.072;2023-03-02T01:42:11;101073.45;;;-2.39;69.99
77153;BME280;66124;51.146;17.072;2023-03-02T01:44:43;101071.34;;;-2.45;70.02
77153;BME280;66124;51.146;17.072;2023-03-02T01:47:15;101073.40;;;-2.52;70.26
77153;BME280;66124;51.146;17.072;2023-03-02T01:49:45;101071.43;;;-2.57;70.41
77153;BME280;66124;51.146;17.072;2023-03-02T01:52:17;101073.35;;;-2.61;70.58
77153;BME280;66124;51.146;17.072;2023-03-02T02:02:48;101059.77;;;-2.65;70.77
77153;BME280;66124;51.146;17.072;2023-03-02T02:05:20;101058.86;;;-2.67;70.85
77153;BME280;66124;51.146;17.072;2023-03-02T02:07:51;101056.31;;;-2.68;71.10
77153;BME280;66124;51.146;17.072;2023-03-02T02:10:21;101055.46;;;-2.68;71.03
77153;BME280;66124;51.146;17.072;2023-03-02T02:12:51;101048.48;;;-2.69;70.99
77153;BME280;66124;51.146;17.072;2023-03-02T02:15:20;101044.27;;;-2.71;71.14
77153;BME280;66124;51.146;17.072;2023-03-02T02:17:50;101043.48;;;-2.73;71.17
77153;BME280;66124;51.146;17.072;2023-03-02T02:20:26;101045.45;;;-2.74;71.21
77153;BME280;66124;51.146;17.072;2023-03-02T02:23:05;101044.36;;;-2.77;71.00
77153;BME280;66124;51.146;17.072;2023-03-02T02:28:24;101040.55;;;-2.83;71.01
77153;BME280;66124;51.146;17.072;2023-03-02T02:31:02;101044.55;;;-2.84;70.97
77153;BME280;66124;51.146;17.072;2023-03-02T02:33:33;101041.49;;;-2.88;70.99
77153;BME280;66124;51.146;17.072;2023-03-02T02:36:07;101040.45;;;-2.92;70.95
77153;BME280;66124;51.146;17.072;2023-03-02T02:38:40;101040.52;;;-2.93;70.98
77153;BME280;66124;51.146;17.072;2023-03-02T02:41:18;101045.31;;;-2.96;71.25
77153;BME280;66124;51.146;17.072;2023-03-02T02:43:49;101043.27;;;-2.97;71.40
77153;BME280;66124;51.146;17.072;2023-03-02T02:46:19;101040.73;;;-2.97;71.24
77153;BME280;66124;51.146;17.072;2023-03-02T02:48:48;101034.60;;;-2.99;71.46
77153;BME280;66124;51.146;17.072;2023-03-02T02:51:21;101031.69;;;-3.02;71.88
77153;BME280;66124;51.146;17.072;2023-03-02T02:53:55;101033.15;;;-3.04;72.12
77153;BME280;66124;51.146;17.072;2023-03-02T02:56:26;101030.50;;;-3.06;72.30
77153;BME280;66124;51.146;17.072;2023-03-02T02:58:59;101025.36;;;-3.07;72.62
77153;BME280;66124;51.146;17.072;2023-03-02T03:01:31;101020.77;;;-3.08;72.22
77153;BME280;66124;51.146;17.072;2023-03-02T03:04:04;101015.91;;;-3.10;72.37
77153;BME280;66124;51.146;17.072;2023-03-02T03:06:33;101022.88;;;-3.12;72.30
77153;BME280;66124;51.146;17.072;2023-03-02T03:09:04;101025.70;;;-3.17;72.26
77153;BME280;66124;51.146;17.072;2023-03-02T03:11:35;101028.81;;;-3.21;72.37
77153;BME280;66124;51.146;17.072;2023-03-02T03:14:08;101027.36;;;-3.23;72.54
77153;BME280;66124;51.146;17.072;2023-03-02T03:26:57;101021.27;;;-3.25;72.37
77153;BME280;66124;51.146;17.072;2023-03-02T03:29:31;101017.96;;;-3.28;72.59
77153;BME280;66124;51.146;17.072;2023-03-02T03:32:01;101017.38;;;-3.30;72.69
77153;BME280;66124;51.146;17.072;2023-03-02T03:34:32;101020.15;;;-3.30;72.90
77153;BME280;66124;51.146;17.072;2023-03-02T03:37:02;101021.63;;;-3.32;72.91
77153;BME280;66124;51.146;17.072;2023-03-02T03:39:32;101021.14;;;-3.33;72.72
77153;BME280;66124;51.146;17.072;2023-03-02T03:49:05;101011.99;;;-3.25;72.49
77153;BME280;66124;51.146;17.072;2023-03-02T03:51:35;101009.46;;;-3.30;72.49
77153;BME280;66124;51.146;17.072;2023-03-02T03:54:06;101007.55;;;-3.29;72.62
77153;BME280;66124;51.146;17.072;2023-03-02T03:59:19;101011.21;;;-3.23;72.32
77153;BME280;66124;51.146;17.072;2023-03-02T04:01:50;101013.44;;;-3.26;72.23
77153;BME280;66124;51.146;17.072;2023-03-02T04:04:21;101013.17;;;-3.29;72.36
77153;BME280;66124;51.146;17.072;2023-03-02T04:06:51;101006.86;;;-3.29;72.44
77153;BME280;66124;51.146;17.072;2023-03-02T04:09:22;101001.66;;;-3.29;72.80
77153;BME280;66124;51.146;17.072;2023-03-02T04:11:53;101003.98;;;-3.26;73.23
77153;BME280;66124;51.146;17.072;2023-03-02T04:14:24;101008.67;;;-3.27;73.07
77153;BME280;66124;51.146;17.072;2023-03-02T04:16:53;101012.55;;;-3.30;72.90
77153;BME280;66124;51.146;17.072;2023-03-02T04:19:23;101008.55;;;-3.32;73.03
77153;BME280;66124;51.146;17.072;2023-03-02T04:21:53;101005.89;;;-3.34;73.29
77153;BME280;66124;51.146;17.072;2023-03-02T04:24:23;101003.95;;;-3.37;73.51
77153;BME280;66124;51.146;17.072;2023-03-02T04:26:53;101002.48;;;-3.41;73.91
77153;BME280;66124;51.146;17.072;2023-03-02T04:29:22;100999.85;;;-3.44;74.05
77153;BME280;66124;51.146;17.072;2023-03-02T04:31:52;101002.35;;;-3.46;74.29
77153;BME280;66124;51.146;17.072;2023-03-02T04:40:40;100998.77;;;-3.33;74.67
77153;BME280;66124;51.146;17.072;2023-03-02T04:43:09;101001.11;;;-3.31;74.62
77153;BME280;66124;51.146;17.072;2023-03-02T04:45:39;100999.79;;;-3.29;74.49
77153;BME280;66124;51.146;17.072;2023-03-02T04:48:08;101001.02;;;-3.25;74.31
77153;BME280;66124;51.146;17.072;2023-03-02T04:50:38;100999.88;;;-3.23;74.22
77153;BME280;66124;51.146;17.072;2023-03-02T04:53:08;100998.14;;;-3.23;74.12
77153;BME280;66124;51.146;17.072;2023-03-02T04:55:38;100994.65;;;-3.22;74.03
77153;BME280;66124;51.146;17.072;2023-03-02T04:58:08;100987.80;;;-3.26;73.98
77153;BME280;66124;51.146;17.072;2023-03-02T05:00:37;100992.08;;;-3.26;73.95
77153;BME280;66124;51.146;17.072;2023-03-02T05:03:07;100990.41;;;-3.30;73.82
77153;BME280;66124;51.146;17.072;2023-03-02T05:05:37;100988.83;;;-3.33;73.80
77153;BME280;66124;51.146;17.072;2023-03-02T05:08:07;100992.95;;;-3.36;74.02
77153;BME280;66124;51.146;17.072;2023-03-02T05:10:36;100995.24;;;-3.38;74.11
77153;BME280;66124;51.146;17.072;2023-03-02T05:13:06;100997.72;;;-3.40;74.19
77153;BME280;66124;51.146;17.072;2023-03-02T05:15:37;100991.61;;;-3.41;73.94
77153;BME280;66124;51.146;17.072;2023-03-02T05:18:10;100995.47;;;-3.39;73.94
77153;BME280;66124;51.146;17.072;2023-03-02T05:20:40;100994.03;;;-3.38;73.91
77153;BME280;66124;51.146;17.072;2023-03-02T05:23:11;100995.52;;;-3.37;73.86
77153;BME280;66124;51.146;17.072;2023-03-02T05:25:41;100993.82;;;-3.37;73.99
77153;BME280;66124;51.146;17.072;2023-03-02T05:28:10;100996.33;;;-3.39;73.75
77153;BME280;66124;51.146;17.072;2023-03-02T05:30:40;100992.87;;;-3.42;73.62
77153;BME280;66124;51.146;17.072;2023-03-02T05:33:10;100993.45;;;-3.43;73.41
77153;BME280;66124;51.146;17.072;2023-03-02T05:35:39;100991.29;;;-3.45;73.42
77153;BME280;66124;51.146;17.072;2023-03-02T05:38:09;100991.30;;;-3.45;73.34
77153;BME280;66124;51.146;17.072;2023-03-02T05:40:40;100993.76;;;-3.46;73.45
77153;BME280;66124;51.146;17.072;2023-03-02T05:43:10;100996.05;;;-3.47;73.51
77153;BME280;66124;51.146;17.072;2023-03-02T05:45:43;100996.32;;;-3.49;73.30
77153;BME280;66124;51.146;17.072;2023-03-02T05:54:32;101005.05;;;-3.34;73.36
77153;BME280;66124;51.146;17.072;2023-03-02T05:57:01;101007.16;;;-3.39;73.38
77153;BME280;66124;51.146;17.072;2023-03-02T05:59:30;101012.17;;;-3.36;73.38
77153;BME280;66124;51.146;17.072;2023-03-02T06:02:00;101012.62;;;-3.34;73.27
77153;BME280;66124;51.146;17.072;2023-03-02T06:04:29;101011.65;;;-3.33;73.48
77153;BME280;66124;51.146;17.072;2023-03-02T06:07:00;101015.52;;;-3.30;73.51
77153;BME280;66124;51.146;17.072;2023-03-02T06:09:29;101018.17;;;-3.29;73.63
77153;BME280;66124;51.146;17.072;2023-03-02T06:11:59;101020.16;;;-3.27;73.52
77153;BME280;66124;51.146;17.072;2023-03-02T06:14:29;101018.13;;;-3.28;73.74
77153;BME280;66124;51.146;17.072;2023-03-02T06:16:58;101022.93;;;-3.24;73.56
77153;BME280;66124;51.146;17.072;2023-03-02T06:19:28;101023.65;;;-3.21;73.65
77153;BME280;66124;51.146;17.072;2023-03-02T06:21:57;101024.67;;;-3.17;73.83
77153;BME280;66124;51.146;17.072;2023-03-02T06:24:26;101027.27;;;-3.14;73.78
77153;BME280;66124;51.146;17.072;2023-03-02T06:26:56;101025.13;;;-3.09;73.89
77153;BME280;66124;51.146;17.072;2023-03-02T06:29:25;101026.94;;;-3.03;73.89
77153;BME280;66124;51.146;17.072;2023-03-02T06:31:54;101026.59;;;-2.97;73.94
77153;BME280;66124;51.146;17.072;2023-03-02T06:34:24;101025.14;;;-2.85;74.09
77153;BME280;66124;51.146;17.072;2023-03-02T06:36:53;101022.04;;;-2.67;73.93
77153;BME280;66124;51.146;17.072;2023-03-02T06:39:23;101022.83;;;-2.46;73.84
77153;BME280;66124;51.146;17.072;2023-03-02T06:41:52;101021.71;;;-2.17;73.64
77153;BME280;66124;51.146;17.072;2023-03-02T06:44:22;101026.17;;;-1.88;73.37
77153;BME280;66124;51.146;17.072;2023-03-02T06:46:51;101032.56;;;-1.69;73.19
77153;BME280;66124;51.146;17.072;2023-03-02T06:49:20;101031.00;;;-1.50;73.17
77153;BME280;66124;51.146;17.072;2023-03-02T06:51:50;101029.70;;;-1.23;72.94
77153;BME280;66124;51.146;17.072;2023-03-02T06:54:19;101030.95;;;-1.06;72.84
77153;BME280;66124;51.146;17.072;2023-03-02T06:56:48;101033.85;;;-0.84;72.71
77153;BME280;66124;51.146;17.072;2023-03-02T06:59:18;101034.82;;;-0.68;72.58
77153;BME280;66124;51.146;17.072;2023-03-02T07:01:47;101036.34;;;-0.52;72.44
77153;BME280;66124;51.146;17.072;2023-03-02T07:04:16;101033.07;;;-0.35;72.27
77153;BME280;66124;51.146;17.072;2023-03-02T07:06:44;101031.33;;;-0.18;72.03
77153;BME280;66124;51.146;17.072;2023-03-02T07:14:20;101031.43;;;0.20;71.15
77153;BME280;66124;51.146;17.072;2023-03-02T07:16:50;101027.31;;;0.25;71.09
77153;BME280;66124;51.146;17.072;2023-03-02T07:19:19;101025.81;;;0.30;71.09
77153;BME280;66124;51.146;17.072;2023-03-02T07:21:49;101029.10;;;0.35;70.91
77153;BME280;66124;51.146;17.072;2023-03-02T07:24:18;101022.58;;;0.40;70.95
77153;BME280;66124;51.146;17.072;2023-03-02T07:26:49;101022.20;;;0.46;70.86
77153;BME280;66124;51.146;17.072;2023-03-02T07:29:18;101025.30;;;0.54;70.77
77153;BME280;66124;51.146;17.072;2023-03-02T07:31:48;101023.64;;;0.64;70.76
77153;BME280;66124;51.146;17.072;2023-03-02T07:34:18;101024.42;;;0.73;70.51
77153;BME280;66124;51.146;17.072;2023-03-02T07:36:47;101023.70;;;0.82;70.25
77153;BME280;66124;51.146;17.072;2023-03-02T07:39:16;101028.55;;;0.90;70.10
77153;BME280;66124;51.146;17.072;2023-03-02T07:41:46;101031.00;;;0.98;70.28
77153;BME280;66124;51.146;17.072;2023-03-02T07:44:15;101030.24;;;1.04;70.11
77153;BME280;66124;51.146;17.072;2023-03-02T07:46:45;101031.49;;;1.11;69.97
77153;BME280;66124;51.146;17.072;2023-03-02T07:49:14;101027.37;;;1.18;69.97
77153;BME280;66124;51.146;17.072;2023-03-02T07:51:44;101026.46;;;1.27;69.94
77153;BME280;66124;51.146;17.072;2023-03-02T07:54:13;101023.52;;;1.35;69.91
77153;BME280;66124;51.146;17.072;2023-03-02T07:56:43;101031.65;;;1.45;69.78
77153;BME280;66124;51.146;17.072;2023-03-02T07:59:13;101031.48;;;1.53;69.70
77153;BME280;66124;51.146;17.072;2023-03-02T08:01:42;101031.40;;;1.59;69.63
77153;BME280;66124;51.146;17.072;2023-03-02T08:04:11;101027.48;;;1.66;69.70
77153;BME280;66124;51.146;17.072;2023-03-02T08:06:41;101019.63;;;1.74;69.23
77153;BME280;66124;51.146;17.072;2023-03-02T08:09:10;101018.80;;;1.84;69.29
77153;BME280;66124;51.146;17.072;2023-03-02T08:11:40;101018.80;;;1.94;69.00
77153;BME280;66124;51.146;17.072;2023-03-02T08:14:09;101020.52;;;2.04;69.30
77153;BME280;66124;51.146;17.072;2023-03-02T08:16:38;101021.86;;;2.15;68.92
77153;BME280;66124;51.146;17.072;2023-03-02T08:19:08;101016.52;;;2.24;68.76
77153;BME280;66124;51.146;17.072;2023-03-02T08:21:38;101017.14;;;2.35;68.72
77153;BME280;66124;51.146;17.072;2023-03-02T08:24:06;101016.58;;;2.45;68.27
77153;BME280;66124;51.146;17.072;2023-03-02T08:26:34;101016.30;;;2.54;68.16
77153;BME280;66124;51.146;17.072;2023-03-02T08:34:11;101016.73;;;2.84;67.24
77153;BME280;66124;51.146;17.072;2023-03-02T08:36:40;101018.20;;;2.90;67.21
77153;BME280;66124;51.146;17.072;2023-03-02T08:39:10;101021.02;;;2.99;66.75
77153;BME280;66124;51.146;17.072;2023-03-02T08:41:39;101022.77;;;3.08;66.69
77153;BME280;66124;51.146;17.072;2023-03-02T08:44:09;101021.83;;;3.18;66.49
77153;BME280;66124;51.146;17.072;2023-03-02T08:46:39;101018.09;;;3.28;66.30
77153;BME280;66124;51.146;17.072;2023-03-02T08:49:08;101016.04;;;3.40;66.07
77153;BME280;66124;51.146;17.072;2023-03-02T08:51:37;101018.42;;;3.49;66.04
77153;BME280;66124;51.146;17.072;2023-03-02T08:54:08;101012.56;;;3.58;65.59
77153;BME280;66124;51.146;17.072;2023-03-02T08:56:41;101005.73;;;3.68;65.47
77153;BME280;66124;51.146;17.072;2023-03-02T08:59:12;101005.92;;;3.77;65.00
77153;BME280;66124;51.146;17.072;2023-03-02T09:01:42;101005.36;;;3.86;64.82
77153;BME280;66124;51.146;17.072;2023-03-02T09:04:11;101005.46;;;3.94;64.70
77153;BME280;66124;51.146;17.072;2023-03-02T09:06:42;101006.84;;;4.03;64.24
77153;BME280;66124;51.146;17.072;2023-03-02T09:09:13;101005.67;;;4.11;63.46
77153;BME280;66124;51.146;17.072;2023-03-02T09:11:43;101003.97;;;4.19;63.41
77153;BME280;66124;51.146;17.072;2023-03-02T09:14:13;100999.48;;;4.28;62.67
77153;BME280;66124;51.146;17.072;2023-03-02T09:16:42;101001.98;;;4.33;62.08
77153;BME280;66124;51.146;17.072;2023-03-02T09:19:12;100998.32;;;4.36;61.88
77153;BME280;66124;51.146;17.072;2023-03-02T09:21:42;100991.06;;;4.37;61.74
77153;BME280;66124;51.146;17.072;2023-03-02T09:24:11;100988.36;;;4.43;61.69
77153;BME280;66124;51.146;17.072;2023-03-02T09:26:41;100989.21;;;4.47;61.17
77153;BME280;66124;51.146;17.072;2023-03-02T09:29:10;100987.44;;;4.52;61.18
77153;BME280;66124;51.146;17.072;2023-03-02T09:31:39;100986.04;;;4.59;61.14
77153;BME280;66124;51.146;17.072;2023-03-02T09:34:09;100980.52;;;4.66;61.01
77153;BME280;66124;51.146;17.072;2023-03-02T09:36:38;100978.77;;;4.73;60.52
77153;BME280;66124;51.146;17.072;2023-03-02T09:39:07;100981.42;;;4.79;60.32
77153;BME280;66124;51.146;17.072;2023-03-02T09:45:06;100974.27;;;4.94;59.50
77153;BME280;66124;51.146;17.072;2023-03-02T09:52:30;100967.92;;;5.07;58.86
77153;BME280;66124;51.146;17.072;2023-03-02T09:55:01;100966.23;;;5.11;58.44
77153;BME280;66124;51.146;17.072;2023-03-02T09:57:39;100967.67;;;5.17;58.23
77153;BME280;66124;51.146;17.072;2023-03-02T10:00:13;100965.15;;;5.22;57.54
77153;BME280;66124;51.146;17.072;2023-03-02T10:02:48;100964.09;;;5.28;57.09
77153;BME280;66124;51.146;17.072;2023-03-02T10:05:24;100967.80;;;5.34;56.71
77153;BME280;66124;51.146;17.072;2023-03-02T10:07:55;100965.09;;;5.41;56.30
77153;BME280;66124;51.146;17.072;2023-03-02T10:10:28;100964.83;;;5.46;56.06
77153;BME280;66124;51.146;17.072;2023-03-02T10:13:17;100967.03;;;5.53;55.74
77153;BME280;66124;51.146;17.072;2023-03-02T10:16:01;100962.90;;;5.56;55.42
77153;BME280;66124;51.146;17.072;2023-03-02T10:18:37;100960.58;;;5.59;55.00
77153;BME280;66124;51.146;17.072;2023-03-02T10:21:16;100963.48;;;5.64;54.97
77153;BME280;66124;51.146;17.072;2023-03-02T10:23:50;100963.61;;;5.67;54.78
77153;BME280;66124;51.146;17.072;2023-03-02T10:26:31;100958.45;;;5.70;54.30
77153;BME280;66124;51.146;17.072;2023-03-02T10:29:17;100959.43;;;5.73;54.62
77153;BME280;66124;51.146;17.072;2023-03-02T10:31:50;100956.46;;;5.75;54.58
77153;BME280;66124;51.146;17.072;2023-03-02T10:34:22;100956.98;;;5.77;54.85
77153;BME280;66124;51.146;17.072;2023-03-02T10:36:53;100956.37;;;5.80;54.86
77153;BME280;66124;51.146;17.072;2023-03-02T10:39:22;100950.48;;;5.89;54.59
77153;BME280;66124;51.146;17.072;2023-03-02T10:41:52;100949.83;;;6.03;54.48
77153;BME280;66124;51.146;17.072;2023-03-02T10:44:26;100944.43;;;6.17;54.42
77153;BME280;66124;51.146;17.072;2023-03-02T10:46:57;100943.55;;;6.41;54.24
77153;BME280;66124;51.146;17.072;2023-03-02T10:49:29;100939.91;;;6.60;54.21
77153;BME280;66124;51.146;17.072;2023-03-02T10:52:01;100937.94;;;6.85;54.26
77153;BME280;66124;51.146;17.072;2023-03-02T10:54:31;100933.19;;;7.07;53.75
77153;BME280;66124;51.146;17.072;2023-03-02T10:57:03;100913.42;;;7.24;53.55
77153;BME280;66124;51.146;17.072;2023-03-02T10:59:44;100921.52;;;7.53;53.32
77153;BME280;66124;51.146;17.072;2023-03-02T11:02:17;100920.27;;;7.81;53.07
77153;BME280;66124;51.146;17.072;2023-03-02T11:04:45;100921.17;;;8.11;52.78
77153;BME280;66124;51.146;17.072;2023-03-02T11:12:46;100903.98;;;9.18;50.94
77153;BME280;66124;51.146;17.072;2023-03-02T11:15:23;100905.08;;;9.43;50.68
77153;BME280;66124;51.146;17.072;2023-03-02T11:17:58;100905.05;;;9.72;50.12
77153;BME280;66124;51.146;17.072;2023-03-02T11:20:31;100902.34;;;10.02;49.87
77153;BME280;66124;51.146;17.072;2023-03-02T11:23:10;100898.30;;;10.27;49.05
77153;BME280;66124;51.146;17.072;2023-03-02T11:25:51;100894.48;;;10.35;48.42
77153;BME280;66124;51.146;17.072;2023-03-02T11:28:30;100893.20;;;10.53;48.40
77153;BME280;66124;51.146;17.072;2023-03-02T11:31:03;100893.47;;;10.85;48.44
77153;BME280;66124;51.146;17.072;2023-03-02T11:33:41;100885.38;;;11.14;47.70
77153;BME280;66124;51.146;17.072;2023-03-02T11:36:17;100881.55;;;11.52;47.42
77153;BME280;66124;51.146;17.072;2023-03-02T11:38:50;100878.20;;;12.00;46.67
77153;BME280;66124;51.146;17.072;2023-03-02T11:41:31;100877.82;;;12.34;45.86
77153;BME280;66124;51.146;17.072;2023-03-02T11:44:05;100878.41;;;12.44;45.34
77153;BME280;66124;51.146;17.072;2023-03-02T11:46:40;100874.33;;;12.47;44.37
77153;BME280;66124;51.146;17.072;2023-03-02T11:49:16;100870.40;;;12.57;43.99
77153;BME280;66124;51.146;17.072;2023-03-02T11:51:54;100867.16;;;12.77;43.61
77153;BME280;66124;51.146;17.072;2023-03-02T11:54:33;100859.65;;;13.00;43.70
77153;BME280;66124;51.146;17.072;2023-03-02T11:57:04;100860.80;;;13.43;43.11
77153;BME280;66124;51.146;17.072;2023-03-02T11:59:35;100857.47;;;13.88;43.03
77153;BME280;66124;51.146;17.072;2023-03-02T12:02:07;100855.29;;;14.41;43.13
77153;BME280;66124;51.146;17.072;2023-03-02T12:04:40;100853.14;;;14.82;42.27
77153;BME280;66124;51.146;17.072;2023-03-02T12:07:19;100840.60;;;15.24;41.44
77153;BME280;66124;51.146;17.072;2023-03-02T12:10:00;100842.69;;;15.54;40.55
77153;BME280;66124;51.146;17.072;2023-03-02T12:12:37;100841.27;;;15.77;39.84
77153;BME280;66124;51.146;17.072;2023-03-02T12:15:26;100838.05;;;16.02;39.43
77153;BME280;66124;51.146;17.072;2023-03-02T12:17:56;100831.87;;;16.46;39.33
77153;BME280;66124;51.146;17.072;2023-03-02T12:20:29;100829.57;;;16.95;38.55
77153;BME280;66124;51.146;17.072;2023-03-02T12:23:06;100830.39;;;17.29;38.16
77153;BME280;66124;51.146;17.072;2023-03-02T12:25:39;100825.95;;;17.73;37.59
77153;BME280;66124;51.146;17.072;2023-03-02T12:33:21;100816.98;;;18.80;35.55
77153;BME280;66124;51.146;17.072;2023-03-02T12:35:59;100810.97;;;18.96;35.17
77153;BME280;66124;51.146;17.072;2023-03-02T12:38:33;100813.91;;;19.18;35.06
77153;BME280;66124;51.146;17.072;2023-03-02T12:41:18;100808.33;;;19.22;34.16
77153;BME280;66124;51.146;17.072;2023-03-02T12:43:56;100808.20;;;19.03;34.13
77153;BME280;66124;51.146;17.072;2023-03-02T12:46:32;100809.67;;;18.84;33.15
77153;BME280;66124;51.146;17.072;2023-03-02T12:49:11;100809.13;;;18.28;33.43
77153;BME280;66124;51.146;17.072;2023-03-02T12:51:49;100803.78;;;18.17;34.15
77153;BME280;66124;51.146;17.072;2023-03-02T12:54:20;100799.70;;;18.62;34.02
77153;BME280;66124;51.146;17.072;2023-03-02T12:57:00;100794.77;;;19.25;33.68
77153;BME280;66124;51.146;17.072;2023-03-02T12:59:29;100794.19;;;19.90;33.62
77153;BME280;66124;51.146;17.072;2023-03-02T13:02:13;100789.27;;;20.35;32.53
77153;BME280;66124;51.146;17.072;2023-03-02T13:04:42;100786.60;;;20.51;32.24
77153;BME280;66124;51.146;17.072;2023-03-02T13:07:21;100785.00;;;20.89;31.89
77153;BME280;66124;51.146;17.072;2023-03-02T13:09:52;100776.19;;;21.33;31.30
77153;BME280;66124;51.146;17.072;2023-03-02T13:12:22;100776.06;;;21.79;31.09
77153;BME280;66124;51.146;17.072;2023-03-02T13:14:53;100777.39;;;22.20;30.68
77153;BME280;66124;51.146;17.072;2023-03-02T13:17:25;100769.09;;;22.58;30.45
77153;BME280;66124;51.146;17.072;2023-03-02T13:19:55;100763.33;;;22.92;29.74
77153;BME280;66124;51.146;17.072;2023-03-02T13:22:25;100755.65;;;23.24;29.43
77153;BME280;66124;51.146;17.072;2023-03-02T13:24:58;100754.40;;;23.54;29.00
77153;BME280;66124;51.146;17.072;2023-03-02T13:27:28;100750.84;;;23.74;28.46
77153;BME280;66124;51.146;17.072;2023-03-02T13:30:09;100748.98;;;23.94;28.27
77153;BME280;66124;51.146;17.072;2023-03-02T13:32:41;100750.14;;;24.12;28.03
77153;BME280;66124;51.146;17.072;2023-03-02T13:35:23;100744.95;;;24.28;27.59
77153;BME280;66124;51.146;17.072;2023-03-02T13:38:00;100737.23;;;24.15;27.35
77153;BME280;66124;51.146;17.072;2023-03-02T13:40:36;100734.90;;;23.84;27.17
77153;BME280;66124;51.146;17.072;2023-03-02T13:43:14;100734.41;;;23.69;27.29
77153;BME280;66124;51.146;17.072;2023-03-02T13:45:50;100733.23;;;23.79;27.35
77153;BME280;66124;51.146;17.072;2023-03-02T13:53:28;100721.06;;;24.20;26.46
77153;BME280;66124;51.146;17.072;2023-03-02T13:55:59;100719.05;;;24.37;26.40
77153;BME280;66124;51.146;17.072;2023-03-02T13:58:29;100716.70;;;24.86;26.03
77153;BME280;66124;51.146;17.072;2023-03-02T14:01:02;100710.62;;;25.07;25.63
77153;BME280;66124;51.146;17.072;2023-03-02T14:03:32;100708.46;;;25.44;25.26
77153;BME280;66124;51.146;17.072;2023-03-02T14:06:01;100705.86;;;26.14;24.92
77153;BME280;66124;51.146;17.072;2023-03-02T14:08:31;100692.92;;;26.74;24.27
77153;BME280;66124;51.146;17.072;2023-03-02T14:11:02;100690.06;;;27.07;23.92
77153;BME280;66124;51.146;17.072;2023-03-02T14:13:36;100688.65;;;27.21;23.70
77153;BME280;66124;51.146;17.072;2023-03-02T14:16:11;100681.45;;;27.66;23.26
77153;BME280;66124;51.146;17.072;2023-03-02T14:18:42;100679.93;;;28.15;23.08
77153;BME280;66124;51.146;17.072;2023-03-02T14:21:15;100674.04;;;28.60;22.61
77153;BME280;66124;51.146;17.072;2023-03-02T14:23:45;100668.55;;;28.99;22.53
77153;BME280;66124;51.146;17.072;2023-03-02T14:26:22;100667.08;;;29.32;22.10
77153;BME280;66124;51.146;17.072;2023-03-02T14:28:55;100663.70;;;29.21;21.57
77153;BME280;66124;51.146;17.072;2023-03-02T14:31:25;100658.99;;;28.99;21.70